Time;durP1;ratioP1;P1;durP2;ratioP2;P2;SDS_P1;SDS_P2;PMS_P1;PMS_P2;Temp;Humidity;BMP_temperature;BMP_pressure;BME280_temperature;BME280_humidity;BME280_pressure;Samples;Min_cycle;Max_cycle;Signal;HPM_P1;HPM_P2
2022/09/22 00:00:58;;;;;;;1.70;1.02;;;22.50;47.40;;;;;;5054166;28;20029;-48
2022/09/22 00:03:24;;;;;;;1.20;0.60;;;22.50;47.40;;;;;;5051581;28;20037;-47
2022/09/22 00:05:56;;;;;;;0.90;0.68;;;22.60;47.40;;;;;;5051955;28;20398;-47
2022/09/22 00:08:22;;;;;;;3.15;0.90;;;22.50;47.40;;;;;;5053505;28;20029;-47
2022/09/22 00:11:20;;;;;;;1.70;0.95;;;22.50;47.30;;;;;;5051117;28;20140;-47
2022/09/22 00:13:52;;;;;;;1.35;0.88;;;22.50;47.30;;;;;;5040979;28;20036;-47
2022/09/22 00:16:22;;;;;;;;;;;22.50;47.30;;;;;;5050843;28;20063;-52
2022/09/22 00:18:48;;;;;;;1.27;0.73;;;22.50;47.30;;;;;;5055218;28;20507;-49
2022/09/22 00:21:17;;;;;;;0.98;0.80;;;22.50;47.30;;;;;;5054509;28;20120;-47
2022/09/22 00:23:43;;;;;;;1.45;0.90;;;22.50;47.30;;;;;;5051472;28;20086;-47
2022/09/22 00:26:11;;;;;;;1.67;0.90;;;22.50;47.30;;;;;;5053490;28;20046;-48
2022/09/22 00:28:40;;;;;;;2.10;1.17;;;22.50;47.30;;;;;;5049096;28;20087;-47
2022/09/22 00:31:12;;;;;;;2.28;1.02;;;22.50;47.30;;;;;;5052513;28;20091;-47
2022/09/22 00:33:39;;;;;;;1.13;0.63;;;22.50;47.30;;;;;;5050524;28;20746;-47
2022/09/22 00:36:06;;;;;;;1.85;0.88;;;22.50;47.20;;;;;;5068465;28;20116;-47
2022/09/22 00:38:32;;;;;;;1.55;1.05;;;22.50;47.30;;;;;;5068323;28;20020;-47
2022/09/22 00:40:59;;;;;;;1.02;0.70;;;22.50;47.20;;;;;;5060182;28;20176;-47
2022/09/22 00:43:27;;;;;;;1.75;0.90;;;22.50;47.20;;;;;;5067401;28;20505;-48
2022/09/22 00:45:58;;;;;;;1.77;0.73;;;22.50;47.20;;;;;;5050416;28;20048;-49
2022/09/22 00:48:26;;;;;;;1.65;0.90;;;22.50;47.20;;;;;;5052251;28;20025;-47
2022/09/22 00:50:54;;;;;;;1.42;0.73;;;22.50;47.20;;;;;;5052704;28;20029;-47
2022/09/22 00:53:23;;;;;;;1.27;0.80;;;22.50;47.20;;;;;;5062751;28;20059;-51
2022/09/22 00:55:53;;;;;;;2.88;1.17;;;22.50;47.20;;;;;;5066745;28;20033;-48
2022/09/22 00:58:22;;;;;;;1.92;1.25;;;22.50;47.20;;;;;;5057626;28;20025;-53
2022/09/22 01:00:48;;;;;;;1.25;0.80;;;22.50;47.20;;;;;;5053788;28;20029;-49
2022/09/22 01:03:19;;;;;;;1.10;0.63;;;22.50;47.20;;;;;;5050424;28;20145;-47
2022/09/22 01:05:48;;;;;;;1.48;1.00;;;22.50;47.10;;;;;;5053106;28;20029;-47
2022/09/22 01:08:15;;;;;;;3.08;1.00;;;22.50;47.20;;;;;;5066438;28;20110;-46
2022/09/22 01:10:40;;;;;;;1.50;0.75;;;22.50;47.10;;;;;;5051309;28;20049;-47
2022/09/22 01:13:09;;;;;;;1.77;0.73;;;22.50;47.10;;;;;;5052146;28;20482;-50
2022/09/22 01:15:46;;;;;;;2.03;1.10;;;22.50;47.10;;;;;;5051362;28;20029;-47
2022/09/22 01:18:34;;;;;;;1.25;1.00;;;22.50;47.10;;;;;;5048763;28;20040;-48
2022/09/22 01:21:23;;;;;;;1.10;1.00;;;22.50;47.40;;;;;;5041674;28;20099;-47
2022/09/22 01:24:19;;;;;;;2.28;0.95;;;22.50;47.10;;;;;;5052081;28;20029;-47
2022/09/22 01:27:27;;;;;;;1.90;0.82;;;22.50;47.10;;;;;;5051004;28;20033;-47
2022/09/22 01:30:13;;;;;;;1.05;0.80;;;22.40;47.00;;;;;;5044195;28;20037;-48
2022/09/22 01:32:59;;;;;;;1.23;0.70;;;22.40;47.00;;;;;;5050835;28;20036;-53
2022/09/22 01:35:50;;;;;;;1.88;0.90;;;22.40;47.00;;;;;;5049226;28;20049;-46
2022/09/22 01:38:34;;;;;;;2.40;0.90;;;22.40;47.00;;;;;;5049753;28;20531;-46
2022/09/22 01:41:06;;;;;;;1.00;0.80;;;22.40;47.00;;;;;;5051505;28;20032;-47
2022/09/22 01:43:34;;;;;;;1.05;0.90;;;22.50;47.00;;;;;;5051108;28;20024;-47
2022/09/22 01:46:15;;;;;;;0.85;0.60;;;22.40;47.00;;;;;;5065408;28;20032;-47
2022/09/22 01:48:45;;;;;;;1.45;0.80;;;22.40;47.00;;;;;;5050959;28;20060;-47
2022/09/22 01:51:20;;;;;;;0.98;0.70;;;22.40;46.90;;;;;;5050917;28;20025;-47
2022/09/22 01:53:57;;;;;;;1.45;0.82;;;22.40;47.00;;;;;;5032010;28;20068;-48
2022/09/22 01:56:25;;;;;;;1.48;0.80;;;22.40;46.90;;;;;;5048613;28;20037;-47
2022/09/22 01:58:59;;;;;;;2.60;1.02;;;22.40;47.00;;;;;;5051342;28;20031;-47
2022/09/22 02:01:30;;;;;;;1.38;0.90;;;22.40;47.00;;;;;;5049135;28;20063;-47
2022/09/22 02:04:08;;;;;;;2.20;0.90;;;22.40;46.90;;;;;;5043934;28;20120;-47
2022/09/22 02:06:42;;;;;;;0.80;0.80;;;22.50;47.00;;;;;;5050320;28;20452;-47
2022/09/22 02:09:15;;;;;;;0.82;0.70;;;22.40;46.90;;;;;;5051299;28;20425;-47
2022/09/22 02:11:41;;;;;;;1.48;0.80;;;22.40;46.90;;;;;;5047278;28;20059;-48
2022/09/22 02:14:07;;;;;;;1.58;1.00;;;22.40;46.90;;;;;;5050098;28;20104;-47
2022/09/22 02:16:33;;;;;;;1.23;0.88;;;22.40;46.90;;;;;;5050097;28;20434;-47
2022/09/22 02:19:01;;;;;;;1.15;0.90;;;22.40;46.90;;;;;;5051361;28;20098;-46
2022/09/22 02:21:28;;;;;;;1.77;0.82;;;22.40;46.90;;;;;;5050276;28;20033;-46
2022/09/22 02:23:54;;;;;;;1.95;1.20;;;22.40;46.90;;;;;;5051121;28;20116;-48
2022/09/22 02:26:24;;;;;;;2.38;1.13;;;22.40;46.90;;;;;;5050342;28;20036;-52
2022/09/22 02:28:54;;;;;;;1.42;1.00;;;22.40;46.90;;;;;;5045475;28;20036;-47
2022/09/22 02:31:22;;;;;;;1.17;0.80;;;22.40;47.00;;;;;;5046683;28;20108;-50
2022/09/22 02:33:50;;;;;;;1.48;0.82;;;22.40;46.90;;;;;;5050504;28;20496;-47
2022/09/22 02:36:34;;;;;;;0.93;0.60;;;22.40;46.90;;;;;;5050911;28;20044;-47
2022/09/22 02:39:22;;;;;;;1.00;0.60;;;22.40;46.90;;;;;;5050733;28;20032;-47
2022/09/22 02:42:24;;;;;;;0.90;0.70;;;22.40;46.90;;;;;;5050786;28;20112;-47
2022/09/22 02:44:56;;;;;;;1.23;0.77;;;22.40;46.90;;;;;;5051198;28;20081;-47
2022/09/22 02:47:31;;;;;;;1.20;0.82;;;22.40;46.90;;;;;;5045898;28;20112;-50
2022/09/22 02:49:58;;;;;;;1.25;0.73;;;22.40;46.90;;;;;;5058188;28;20032;-47
2022/09/22 02:52:24;;;;;;;1.38;0.80;;;22.40;46.80;;;;;;5050362;28;20104;-49
2022/09/22 02:54:52;;;;;;;1.48;0.98;;;22.40;46.90;;;;;;5050429;28;20458;-47
2022/09/22 02:57:19;;;;;;;1.73;1.30;;;22.40;46.90;;;;;;5050281;28;20029;-47
2022/09/22 02:59:44;;;;;;;1.58;0.82;;;22.40;46.80;;;;;;5049891;28;20051;-47
2022/09/22 03:02:10;;;;;;;0.95;0.85;;;22.40;46.80;;;;;;5050854;28;20116;-47
2022/09/22 03:04:35;;;;;;;1.35;0.80;;;22.40;46.90;;;;;;5047052;28;20025;-48
2022/09/22 03:07:01;;;;;;;1.10;0.80;;;22.40;46.90;;;;;;5050592;28;20056;-47
2022/09/22 03:09:27;;;;;;;1.92;1.00;;;22.40;46.80;;;;;;5049888;28;20462;-48
2022/09/22 03:11:52;;;;;;;1.13;0.93;;;22.40;46.90;;;;;;5050246;28;20053;-47
2022/09/22 03:14:18;;;;;;;1.40;0.90;;;22.40;46.90;;;;;;5051281;28;20542;-49
2022/09/22 03:16:43;;;;;;;1.52;0.82;;;22.40;46.90;;;;;;5058108;28;20040;-47
2022/09/22 03:19:09;;;;;;;1.00;0.75;;;22.40;46.90;;;;;;5069715;28;20029;-50
2022/09/22 03:21:35;;;;;;;1.83;1.00;;;22.40;46.90;;;;;;5052875;28;20382;-46
2022/09/22 03:24:01;;;;;;;1.40;1.08;;;22.40;46.90;;;;;;5054843;28;20029;-47
2022/09/22 03:26:26;;;;;;;1.80;0.90;;;22.40;46.90;;;;;;5062572;28;20028;-46
2022/09/22 03:28:52;;;;;;;1.27;0.90;;;22.40;46.80;;;;;;5059584;28;20112;-47
2022/09/22 03:31:17;;;;;;;1.27;0.80;;;22.40;46.80;;;;;;5055438;28;20107;-46
2022/09/22 03:33:43;;;;;;;1.95;0.80;;;22.40;46.80;;;;;;5052307;28;20067;-47
2022/09/22 03:36:09;;;;;;;1.35;1.00;;;22.40;46.80;;;;;;5054184;28;20037;-47
2022/09/22 03:38:34;;;;;;;0.98;0.65;;;22.40;46.80;;;;;;5072794;28;20066;-47
2022/09/22 03:41:00;;;;;;;0.90;0.75;;;22.40;46.90;;;;;;5057692;28;20020;-47
2022/09/22 03:43:25;;;;;;;2.10;0.88;;;22.40;46.80;;;;;;5072619;28;20035;-47
2022/09/22 03:45:58;;;;;;;1.20;0.80;;;22.40;46.80;;;;;;5073837;28;20036;-48
2022/09/22 03:48:26;;;;;;;1.15;1.00;;;22.40;46.80;;;;;;5054650;28;20116;-53
2022/09/22 03:50:52;;;;;;;0.80;0.60;;;22.40;46.80;;;;;;5066813;28;20067;-48
2022/09/22 03:53:18;;;;;;;1.85;1.05;;;22.30;46.70;;;;;;5062754;28;20056;-48
2022/09/22 03:55:43;;;;;;;1.48;1.17;;;22.40;46.90;;;;;;5052932;28;20220;-48
2022/09/22 03:58:09;;;;;;;1.15;0.73;;;22.40;46.80;;;;;;5050155;28;20029;-49
2022/09/22 04:00:34;;;;;;;1.42;1.00;;;22.30;46.80;;;;;;5058500;28;20033;-50
2022/09/22 04:03:00;;;;;;;2.53;1.00;;;22.30;46.80;;;;;;5054175;28;20033;-50
2022/09/22 04:05:26;;;;;;;2.00;0.82;;;22.40;46.80;;;;;;5052527;28;20036;-53
2022/09/22 04:07:52;;;;;;;1.42;1.10;;;22.40;46.80;;;;;;5066551;28;20086;-50
2022/09/22 04:10:17;;;;;;;2.40;0.93;;;22.30;46.70;;;;;;5062138;28;20111;-48
2022/09/22 04:12:43;;;;;;;1.67;0.73;;;22.40;46.80;;;;;;5051812;28;20045;-51
2022/09/22 04:15:09;;;;;;;0.68;0.68;;;22.40;46.80;;;;;;5048330;28;20037;-50
2022/09/22 04:17:35;;;;;;;1.10;0.77;;;22.30;46.70;;;;;;5061648;28;20378;-48
2022/09/22 04:20:03;;;;;;;1.65;0.90;;;22.30;46.70;;;;;;5055167;28;20112;-48
2022/09/22 04:22:28;;;;;;;1.77;1.35;;;22.30;46.60;;;;;;5052656;28;20032;-47
2022/09/22 04:24:54;;;;;;;1.40;0.80;;;22.30;46.60;;;;;;5053490;28;20083;-48
2022/09/22 04:27:20;;;;;;;4.00;0.88;;;22.30;46.70;;;;;;5061949;28;20028;-49
2022/09/22 04:29:45;;;;;;;1.38;1.00;;;22.30;46.60;;;;;;5056190;28;20100;-48
2022/09/22 04:32:11;;;;;;;1.10;0.82;;;22.30;46.70;;;;;;5060687;28;20056;-46
2022/09/22 04:34:37;;;;;;;0.95;0.82;;;22.30;46.60;;;;;;5054416;28;20033;-47
2022/09/22 04:37:02;;;;;;;1.35;0.93;;;22.30;46.60;;;;;;5058231;28;20448;-46
2022/09/22 04:39:28;;;;;;;2.15;1.00;;;22.30;46.60;;;;;;5068857;28;20447;-47
2022/09/22 04:41:54;;;;;;;1.23;0.75;;;22.30;46.60;;;;;;5062289;28;20063;-47
2022/09/22 04:44:19;;;;;;;0.93;0.65;;;22.30;46.60;;;;;;5072149;28;20028;-47
2022/09/22 04:46:45;;;;;;;0.95;0.80;;;22.30;46.60;;;;;;5055316;28;20613;-46
2022/09/22 04:49:12;;;;;;;0.85;0.63;;;22.30;46.60;;;;;;5047654;28;20025;-47
2022/09/22 04:51:38;;;;;;;3.65;1.10;;;22.30;46.50;;;;;;5070675;28;20474;-47
2022/09/22 04:54:04;;;;;;;1.40;1.00;;;22.30;46.60;;;;;;5059807;28;20026;-48
2022/09/22 04:56:29;;;;;;;0.95;0.73;;;22.30;46.60;;;;;;5051108;28;20382;-47
2022/09/22 04:58:55;;;;;;;1.52;0.90;;;22.30;46.60;;;;;;5043599;28;20033;-48
2022/09/22 05:01:20;;;;;;;1.27;1.00;;;22.30;46.60;;;;;;5043816;28;20525;-47
2022/09/22 05:03:46;;;;;;;1.08;0.80;;;22.30;46.60;;;;;;5045077;28;20694;-47
2022/09/22 05:06:11;;;;;;;1.08;0.88;;;22.30;46.60;;;;;;5043645;28;20025;-48
2022/09/22 05:08:37;;;;;;;0.82;0.57;;;22.30;46.60;;;;;;5052009;28;20052;-49
2022/09/22 05:11:05;;;;;;;0.82;0.65;;;22.30;46.50;;;;;;5046947;28;20077;-47
2022/09/22 05:13:31;;;;;;;1.30;0.75;;;22.30;46.60;;;;;;5026141;28;20082;-47
2022/09/22 05:15:56;;;;;;;1.30;0.90;;;22.30;46.60;;;;;;5030350;28;20037;-47
2022/09/22 05:18:22;;;;;;;1.50;0.90;;;22.30;46.60;;;;;;5033504;28;20069;-49
2022/09/22 05:20:48;;;;;;;1.13;0.80;;;22.30;46.50;;;;;;5032383;28;20031;-46
2022/09/22 05:23:13;;;;;;;2.40;0.88;;;22.30;46.60;;;;;;5035449;28;20113;-47
2022/09/22 05:25:39;;;;;;;0.95;0.80;;;22.30;46.60;;;;;;5040785;28;20025;-50
2022/09/22 05:28:04;;;;;;;1.38;0.70;;;22.30;47.20;;;;;;5043354;28;20470;-51
2022/09/22 05:30:30;;;;;;;1.33;1.00;;;22.30;46.80;;;;;;5047717;28;20024;-51
2022/09/22 05:32:56;;;;;;;1.40;0.85;;;22.30;46.80;;;;;;5028790;28;20398;-47
2022/09/22 05:35:23;;;;;;;3.30;1.00;;;22.30;46.90;;;;;;5033305;28;20029;-47
2022/09/22 05:37:50;;;;;;;2.97;1.00;;;22.30;47.50;;;;;;5032121;28;20037;-49
2022/09/22 05:40:17;;;;;;;1.40;0.70;;;22.40;47.80;;;;;;5025106;28;20116;-52
2022/09/22 05:42:47;;;;;;;0.82;0.70;;;22.40;46.20;;;;;;5049070;28;20079;-51
2022/09/22 05:45:14;;;;;;;4.50;1.50;;;22.40;46.20;;;;;;5023456;28;20065;-47
2022/09/22 05:47:41;;;;;;;4.80;1.00;;;22.40;47.40;;;;;;5025560;28;20034;-51
2022/09/22 05:50:09;;;;;;;3.60;1.88;;;22.50;47.60;;;;;;5030202;28;20030;-47
2022/09/22 05:52:34;;;;;;;3.42;1.10;;;22.50;47.70;;;;;;5032139;28;20025;-47
2022/09/22 05:55:00;;;;;;;2.78;1.02;;;22.50;48.10;;;;;;5028096;28;20051;-46
2022/09/22 05:57:26;;;;;;;4.00;1.35;;;22.50;48.30;;;;;;5036460;28;20037;-52
2022/09/22 05:59:55;;;;;;;13.85;1.30;;;22.50;48.50;;;;;;5039429;28;20021;-47
2022/09/22 06:02:22;;;;;;;7.80;1.67;;;22.50;48.60;;;;;;5035220;28;20044;-46
2022/09/22 06:04:47;;;;;;;3.70;1.50;;;22.50;48.70;;;;;;5026820;28;20099;-47
2022/09/22 06:07:13;;;;;;;3.63;1.23;;;22.50;48.80;;;;;;5033169;28;20033;-49
2022/09/22 06:09:39;;;;;;;2.83;1.40;;;22.40;48.90;;;;;;5025777;28;20029;-46
2022/09/22 06:12:07;;;;;;;3.85;1.17;;;22.40;48.80;;;;;;5035986;28;20049;-46
2022/09/22 06:14:35;;;;;;;2.35;1.20;;;22.40;48.80;;;;;;5051020;28;20040;-48
2022/09/22 06:17:01;;;;;;;4.00;1.17;;;22.40;48.90;;;;;;5046514;28;20040;-48
2022/09/22 06:19:28;;;;;;;2.80;1.30;;;22.40;48.90;;;;;;5050885;28;20110;-52
2022/09/22 06:21:54;;;;;;;5.10;1.55;;;22.40;48.90;;;;;;5047853;28;20029;-48
2022/09/22 06:24:21;;;;;;;2.63;1.13;;;22.40;48.90;;;;;;5050267;28;20036;-48
2022/09/22 06:26:46;;;;;;;3.10;1.38;;;22.40;48.90;;;;;;5044619;28;20041;-47
2022/09/22 06:29:12;;;;;;;4.15;1.17;;;22.40;48.80;;;;;;5048089;28;20029;-50
2022/09/22 06:31:38;;;;;;;9.20;1.95;;;22.40;48.80;;;;;;5035707;28;20030;-48
2022/09/22 06:34:04;;;;;;;2.10;1.20;;;22.40;48.90;;;;;;5040035;28;20076;-47
2022/09/22 06:36:30;;;;;;;2.60;1.35;;;22.40;48.80;;;;;;5049200;28;20044;-54
2022/09/22 06:39:00;;;;;;;3.35;1.13;;;22.40;48.80;;;;;;5041924;28;20028;-48
2022/09/22 06:41:27;;;;;;;2.45;1.15;;;22.40;48.80;;;;;;5041778;28;20432;-49
2022/09/22 06:43:56;;;;;;;2.53;1.20;;;22.40;48.80;;;;;;5048016;28;20100;-47
2022/09/22 06:46:26;;;;;;;1.63;0.93;;;22.40;48.80;;;;;;5049197;28;20059;-48
2022/09/22 06:48:56;;;;;;;3.03;1.20;;;22.40;48.80;;;;;;5050230;28;20024;-48
2022/09/22 06:51:25;;;;;;;1.00;0.80;;;22.40;48.70;;;;;;5053649;28;20025;-47
2022/09/22 06:53:51;;;;;;;1.40;0.93;;;22.40;48.70;;;;;;5053639;28;20164;-50
2022/09/22 06:56:19;;;;;;;3.08;2.05;;;22.40;48.70;;;;;;5051571;28;20048;-51
2022/09/22 06:58:44;;;;;;;1.33;1.08;;;22.40;48.80;;;;;;5051707;28;20059;-51
2022/09/22 07:01:10;;;;;;;2.42;1.35;;;22.40;48.80;;;;;;5052063;28;20123;-51
2022/09/22 07:03:40;;;;;;;4.28;1.20;;;22.40;48.80;;;;;;5055728;28;20486;-48
2022/09/22 07:06:07;;;;;;;2.40;1.10;;;22.40;48.80;;;;;;5055847;28;20029;-48
2022/09/22 07:08:34;;;;;;;2.30;1.17;;;22.40;48.80;;;;;;5052522;28;20039;-49
2022/09/22 07:11:09;;;;;;;1.52;1.00;;;22.30;48.80;;;;;;5046743;28;20053;-47
2022/09/22 07:13:40;;;;;;;2.90;1.08;;;22.30;48.70;;;;;;5032883;28;20474;-50
2022/09/22 07:16:09;;;;;;;1.77;1.00;;;22.30;48.70;;;;;;5028356;28;20029;-51
2022/09/22 07:18:39;;;;;;;1.55;1.00;;;22.40;48.80;;;;;;5027264;28;20108;-47
2022/09/22 07:21:11;;;;;;;2.45;1.27;;;22.40;48.80;;;;;;5027199;28;20026;-47
2022/09/22 07:23:37;;;;;;;1.25;0.90;;;22.40;48.70;;;;;;5034312;28;20352;-48
2022/09/22 07:26:04;;;;;;;1.35;1.00;;;22.40;48.70;;;;;;5033925;28;20056;-52
2022/09/22 07:28:33;;;;;;;2.45;1.40;;;22.30;48.70;;;;;;5025098;28;20028;-52
2022/09/22 07:31:04;;;;;;;3.53;1.77;;;22.30;48.60;;;;;;5027658;28;20029;-49
2022/09/22 07:33:34;;;;;;;;;;;22.40;48.70;;;;;;5021978;28;20029;-53
2022/09/22 07:36:06;;;;;;;2.42;1.30;;;22.40;48.70;;;;;;5022377;28;19967;-47
2022/09/22 07:38:32;;;;;;;;;;;22.40;48.70;;;;;;5031697;28;20034;-55
2022/09/22 07:41:07;;;;;;;1.98;1.23;;;22.40;48.60;;;;;;5022837;28;19949;-48
2022/09/22 07:43:33;;;;;;;1.67;1.20;;;22.40;48.70;;;;;;5033633;28;20033;-55
2022/09/22 07:45:59;;;;;;;2.10;0.90;;;22.40;48.70;;;;;;5033681;28;20037;-48
2022/09/22 07:48:45;;;;;;;2.53;1.17;;;22.40;48.70;;;;;;5033177;28;20033;-48
2022/09/22 07:51:23;;;;;;;3.55;1.63;;;22.40;48.60;;;;;;5022931;28;20018;-47
2022/09/22 07:53:50;;;;;;;3.15;1.83;;;22.40;48.70;;;;;;5032946;28;20378;-47
2022/09/22 07:56:20;;;;;;;2.58;1.30;;;22.40;48.70;;;;;;5021222;28;20045;-50
2022/09/22 07:58:52;;;;;;;3.08;1.40;;;22.30;48.60;;;;;;5029445;28;20025;-54
2022/09/22 08:01:21;;;;;;;4.15;1.73;;;22.30;48.60;;;;;;5028206;28;20037;-48
2022/09/22 08:03:47;;;;;;;1.55;1.13;;;22.40;48.60;;;;;;5029510;28;20060;-48
2022/09/22 08:06:15;;;;;;;2.15;1.30;;;22.40;48.60;;;;;;5033175;28;20069;-51
2022/09/22 08:08:43;;;;;;;2.85;1.48;;;22.40;48.70;;;;;;5032644;28;20025;-51
2022/09/22 08:11:16;;;;;;;2.95;1.23;;;22.40;48.70;;;;;;5029222;28;20041;-51
2022/09/22 08:13:48;;;;;;;2.88;1.60;;;22.40;48.60;;;;;;5032197;28;20036;-50
2022/09/22 08:16:16;;;;;;;4.25;1.63;;;22.40;48.70;;;;;;5032756;28;20437;-53
2022/09/22 08:18:42;;;;;;;1.48;1.30;;;22.40;48.70;;;;;;5004585;28;20422;-49
2022/09/22 08:21:08;;;;;;;2.97;1.58;;;22.40;48.70;;;;;;5023450;28;20026;-48
2022/09/22 08:23:34;;;;;;;4.38;1.50;;;22.40;48.70;;;;;;5031318;28;20030;-52
2022/09/22 08:26:06;;;;;;;1.90;1.33;;;22.40;48.70;;;;;;5027616;28;20101;-47
2022/09/22 08:28:32;;;;;;;3.72;1.85;;;22.40;48.70;;;;;;5024867;28;20026;-49
2022/09/22 08:30:58;;;;;;;4.75;2.13;;;22.40;48.70;;;;;;5024024;28;20379;-51
2022/09/22 08:33:25;;;;;;;1.52;1.10;;;22.40;48.70;;;;;;5024729;28;20033;-47
2022/09/22 08:35:55;;;;;;;2.60;1.30;;;22.40;48.70;;;;;;5026432;28;20052;-47
2022/09/22 08:38:22;;;;;;;3.00;1.48;;;22.40;48.80;;;;;;5024477;28;20022;-49
2022/09/22 08:41:25;;;;;;;4.20;1.40;;;22.40;48.80;;;;;;5030358;28;20183;-47
2022/09/22 08:43:59;;;;;;;3.38;1.55;;;22.40;48.70;;;;;;5032045;28;20034;-48
2022/09/22 08:46:27;;;;;;;2.92;1.50;;;22.40;48.70;;;;;;5030188;28;21705;-47
2022/09/22 08:51:54;;;;;;;3.17;1.58;;;22.40;48.80;;;;;;5025025;28;20036;-51
2022/09/22 08:54:30;;;;;;;1.65;1.40;;;22.40;48.80;;;;;;5028598;28;20446;-50
2022/09/22 08:57:09;;;;;;;1.85;1.30;;;22.40;48.80;;;;;;5024335;28;20033;-49
2022/09/22 08:59:59;;;;;;;3.78;1.48;;;22.40;48.80;;;;;;5019396;28;20040;-53
2022/09/22 09:02:43;;;;;;;3.03;1.38;;;22.50;49.00;;;;;;5028647;28;20026;-51
2022/09/22 09:05:48;;;;;;;3.33;2.05;;;22.50;49.50;;;;;;5022103;28;20432;-48
2022/09/22 09:08:13;;;;;;;4.60;1.88;;;22.50;49.60;;;;;;5029827;28;20083;-52
2022/09/22 09:10:51;;;;;;;3.92;1.67;;;22.50;49.70;;;;;;5031202;28;20029;-50
2022/09/22 09:13:35;;;;;;;3.75;1.55;;;22.40;49.80;;;;;;5022347;28;20475;-47
2022/09/22 09:16:24;;;;;;;3.55;1.20;;;22.40;49.70;;;;;;5028030;28;20068;-48
2022/09/22 09:19:01;;;;;;;2.55;1.40;;;22.40;49.70;;;;;;5030938;28;20079;-48
2022/09/22 09:21:30;;;;;;;4.43;2.00;;;22.40;49.70;;;;;;5032028;28;20168;-50
2022/09/22 09:24:00;;;;;;;1.98;1.38;;;22.40;49.70;;;;;;5022592;28;20190;-48
2022/09/22 09:26:27;;;;;;;3.30;1.77;;;22.40;49.70;;;;;;5032177;28;20546;-51
2022/09/22 09:28:59;;;;;;;2.90;1.23;;;22.40;49.70;;;;;;5024980;28;20421;-50
2022/09/22 09:31:37;;;;;;;3.95;1.95;;;22.40;49.70;;;;;;5026705;28;20029;-49
2022/09/22 09:34:16;;;;;;;3.88;1.50;;;22.40;49.60;;;;;;5025841;28;20057;-51
2022/09/22 09:36:48;;;;;;;5.47;1.85;;;22.40;49.60;;;;;;5022395;28;20128;-47
2022/09/22 09:39:25;;;;;;;2.85;2.13;;;22.50;49.60;;;;;;5020451;28;20113;-47
2022/09/22 09:41:51;;;;;;;4.13;1.40;;;22.40;49.60;;;;;;5016981;28;20390;-48
2022/09/22 09:44:25;;;;;;;2.42;1.65;;;22.40;50.20;;;;;;5022850;28;20083;-49
2022/09/22 09:47:05;;;;;;;1.98;1.10;;;22.50;49.60;;;;;;5031717;28;20033;-49
2022/09/22 09:49:31;;;;;;;1.95;1.20;;;22.50;49.50;;;;;;5024310;28;20063;-50
2022/09/22 09:52:02;;;;;;;5.60;1.88;;;22.50;49.40;;;;;;5025534;28;20037;-47
2022/09/22 09:54:28;;;;;;;2.30;1.15;;;22.50;49.40;;;;;;5027423;28;20032;-51
2022/09/22 09:57:23;;;;;;;2.10;1.30;;;22.40;49.30;;;;;;5028241;28;20049;-46
2022/09/22 10:00:31;;;;;;;1.92;1.20;;;22.50;49.30;;;;;;5017806;28;20076;-49
2022/09/22 10:03:11;;;;;;;2.03;1.30;;;22.40;49.20;;;;;;5024451;28;20056;-49
2022/09/22 10:05:37;;;;;;;2.28;1.55;;;22.50;49.10;;;;;;5031031;28;20076;-53
2022/09/22 10:08:18;;;;;;;2.13;1.15;;;22.40;49.00;;;;;;5030457;28;20033;-48
2022/09/22 10:10:45;;;;;;;3.08;1.08;;;22.40;49.10;;;;;;5023038;28;20048;-51
2022/09/22 10:13:10;;;;;;;1.77;1.10;;;22.40;49.00;;;;;;5030977;28;20039;-48
2022/09/22 10:15:38;;;;;;;4.72;1.40;;;22.40;49.10;;;;;;5031112;28;20112;-47
2022/09/22 10:18:38;;;;;;;7.32;2.10;;;22.40;49.10;;;;;;5027979;28;20057;-48
2022/09/22 10:21:22;;;;;;;2.55;1.30;;;22.50;49.60;;;;;;5010008;28;20441;-48
2022/09/22 10:23:56;;;;;;;4.05;1.27;;;22.50;49.20;;;;;;5034279;28;20021;-49
2022/09/22 10:26:25;;;;;;;2.35;1.40;;;22.50;49.10;;;;;;5032940;28;20032;-52
2022/09/22 10:29:07;;;;;;;3.00;1.08;;;22.50;49.10;;;;;;5019348;28;20030;-49
2022/09/22 10:31:37;;;;;;;3.00;1.00;;;22.40;49.10;;;;;;5029310;28;20052;-49
2022/09/22 10:34:05;;;;;;;2.55;0.98;;;22.40;49.10;;;;;;5036844;28;20475;-49
2022/09/22 10:36:32;;;;;;;1.92;1.20;;;22.50;49.10;;;;;;5036500;28;20080;-50
2022/09/22 10:38:58;;;;;;;1.65;0.85;;;22.40;49.70;;;;;;5028771;28;20029;-47
2022/09/22 10:41:27;;;;;;;2.40;1.52;;;22.50;49.20;;;;;;5035822;28;20029;-46
2022/09/22 10:44:10;;;;;;;3.42;1.65;;;22.40;49.70;;;;;;5051933;28;20025;-48
2022/09/22 10:47:04;;;;;;;2.15;1.17;;;22.40;49.00;;;;;;5027705;28;20116;-53
2022/09/22 10:49:59;;;;;;;3.67;1.00;;;22.40;49.00;;;;;;5034416;28;20032;-47
2022/09/22 10:52:37;;;;;;;2.15;1.20;;;22.40;49.00;;;;;;5046147;28;20081;-47
2022/09/22 10:55:25;;;;;;;3.58;1.20;;;22.40;49.00;;;;;;5041404;28;20108;-50
2022/09/22 10:58:08;;;;;;;1.85;1.30;;;22.40;49.00;;;;;;5039395;28;20034;-48
2022/09/22 11:00:36;;;;;;;1.80;0.98;;;22.50;48.90;;;;;;5028433;28;20093;-49
2022/09/22 11:03:22;;;;;;;4.60;2.00;;;22.50;49.00;;;;;;5032389;28;20102;-47
2022/09/22 11:12:23;;;;;;;3.08;1.00;;;22.50;49.20;;;;;;5026441;27;20155;-48
2022/09/22 11:15:10;;;;;;;2.50;1.00;;;22.50;49.30;;;;;;5049932;28;20108;-51
2022/09/22 11:17:59;;;;;;;2.38;1.05;;;22.50;49.40;;;;;;5016023;28;20088;-47
2022/09/22 11:20:31;;;;;;;1.98;1.02;;;22.50;49.50;;;;;;5029825;28;20033;-46
2022/09/22 11:23:08;;;;;;;2.17;1.00;;;22.60;49.60;;;;;;5029399;28;20537;-46
2022/09/22 11:26:11;;;;;;;3.35;1.25;;;22.50;49.60;;;;;;5028297;28;20435;-48
2022/09/22 11:29:06;;;;;;;1.35;0.95;;;22.50;49.60;;;;;;5030983;28;20385;-46
2022/09/22 11:31:48;;;;;;;4.70;0.82;;;22.50;49.60;;;;;;5051443;28;20025;-46
2022/09/22 11:34:26;;;;;;;1.73;0.90;;;22.50;49.50;;;;;;5036710;28;20035;-46
2022/09/22 11:37:25;;;;;;;2.95;0.90;;;22.60;49.60;;;;;;5024738;28;20044;-50
2022/09/22 11:40:25;;;;;;;6.97;1.70;;;22.60;49.70;;;;;;5027429;28;20105;-47
2022/09/22 11:43:17;;;;;;;1.92;0.98;;;22.60;49.80;;;;;;5029043;28;20049;-48
2022/09/22 11:46:02;;;;;;;1.33;0.80;;;22.60;49.90;;;;;;5028353;28;20108;-53
2022/09/22 11:48:52;;;;;;;1.42;0.75;;;22.60;49.90;;;;;;5026116;28;20029;-50
2022/09/22 11:51:37;;;;;;;2.10;1.10;;;22.50;50.00;;;;;;5021989;28;20382;-50
2022/09/22 11:54:50;;;;;;;2.60;1.00;;;22.50;50.00;;;;;;5029361;28;20113;-49
2022/09/22 11:57:22;;;;;;;1.25;0.80;;;22.50;49.90;;;;;;4950014;28;20053;-53
2022/09/22 11:59:54;;;;;;;1.48;0.80;;;22.50;50.00;;;;;;5007053;28;20049;-50
2022/09/22 12:02:47;;;;;;;4.15;1.30;;;22.50;50.00;;;;;;5024469;28;20030;-50
2022/09/22 12:05:25;;;;;;;0.77;0.77;;;22.50;50.00;;;;;;5032811;28;20561;-47
2022/09/22 12:08:01;;;;;;;2.97;1.17;;;22.60;50.00;;;;;;5025326;28;20025;-50
2022/09/22 12:10:34;;;;;;;1.15;0.70;;;22.60;49.90;;;;;;5018200;28;20114;-51
2022/09/22 12:13:02;;;;;;;1.15;0.80;;;22.60;49.80;;;;;;5044728;28;20055;-49
2022/09/22 12:15:45;;;;;;;2.10;1.00;;;22.60;49.80;;;;;;5053997;28;20048;-48
2022/09/22 12:18:39;;;;;;;1.70;0.95;;;22.60;49.90;;;;;;5043059;28;20026;-49
2022/09/22 12:21:08;;;;;;;1.38;0.70;;;22.60;49.90;;;;;;5054212;28;20196;-47
2022/09/22 12:23:41;;;;;;;1.00;0.70;;;22.60;49.90;;;;;;5055406;28;20457;-49
2022/09/22 12:26:11;;;;;;;2.38;0.90;;;22.60;49.80;;;;;;5054038;28;20032;-51
2022/09/22 12:28:42;;;;;;;2.28;0.90;;;22.60;49.60;;;;;;5048447;28;20071;-51
2022/09/22 12:31:11;;;;;;;1.88;1.00;;;22.60;49.60;;;;;;5048300;28;20026;-49
2022/09/22 12:33:47;;;;;;;1.10;0.77;;;22.60;49.60;;;;;;5055626;28;20029;-48
2022/09/22 12:36:15;;;;;;;1.88;0.70;;;22.70;49.50;;;;;;5052110;28;20041;-48
2022/09/22 12:38:42;;;;;;;1.67;0.70;;;22.60;49.40;;;;;;5058081;28;20035;-48
2022/09/22 12:41:09;;;;;;;1.48;0.73;;;22.60;49.30;;;;;;5053837;28;20477;-46
2022/09/22 12:43:35;;;;;;;1.60;0.88;;;22.70;49.40;;;;;;5059370;28;20039;-46
2022/09/22 12:46:11;;;;;;;1.27;0.70;;;22.70;49.40;;;;;;5060404;28;20029;-50
2022/09/22 12:48:37;;;;;;;1.98;0.80;;;22.70;49.40;;;;;;5050429;28;20029;-47
2022/09/22 12:51:16;;;;;;;1.30;0.70;;;22.70;49.30;;;;;;5053555;28;20627;-46
2022/09/22 12:53:42;;;;;;;0.88;0.70;;;22.70;49.30;;;;;;5053124;28;20028;-54
2022/09/22 12:56:45;;;;;;;1.42;0.70;;;22.70;49.40;;;;;;5057996;28;20036;-49
2022/09/22 12:59:35;;;;;;;1.20;0.70;;;22.80;49.50;;;;;;5054872;28;20060;-51
2022/09/22 13:02:16;;;;;;;0.80;0.63;;;22.80;49.50;;;;;;5049798;28;20100;-51
2022/09/22 13:04:56;;;;;;;3.67;0.93;;;22.80;49.50;;;;;;5049792;28;20115;-53
2022/09/22 13:07:41;;;;;;;0.98;0.70;;;22.80;49.50;;;;;;5050216;28;20029;-50
2022/09/22 13:10:29;;;;;;;1.83;1.08;;;22.80;49.50;;;;;;5049380;28;20028;-52
2022/09/22 13:15:50;;;;;;;0.70;0.70;;;22.80;49.60;;;;;;5054908;28;20038;-48
2022/09/22 13:18:38;;;;;;;2.30;0.80;;;22.80;49.60;;;;;;5064168;28;20041;-49
2022/09/22 13:21:13;;;;;;;0.90;0.70;;;22.90;49.60;;;;;;5045815;28;20083;-49
2022/09/22 13:23:54;;;;;;;1.25;0.80;;;22.90;49.60;;;;;;5055248;28;20051;-47
2022/09/22 13:26:19;;;;;;;1.17;0.73;;;22.90;49.60;;;;;;5042232;28;20076;-49